Time;durP1;ratioP1;P1;durP2;ratioP2;P2;SDS_P1;SDS_P2;PMS_P1;PMS_P2;Temp;Humidity;BMP_temperature;BMP_pressure;BME280_temperature;BME280_humidity;BME280_pressure;Samples;Min_cycle;Max_cycle;Signal;HPM_P1;HPM_P2
2021/01/02 00:00:49;;;;;;;35.77;20.87;;;;;;;;;;5056825;28;20469;-73
2021/01/02 00:03:34;;;;;;;33.83;21.00;;;;;;;;;;5057671;28;20475;-73
2021/01/02 00:06:09;;;;;;;36.37;20.17;;;;;;;;;;5057813;28;20446;-73
2021/01/02 00:08:38;;;;;;;35.23;17.97;;;;;;;;;;5057072;28;20459;-73
2021/01/02 00:11:22;;;;;;;32.73;17.40;;;;;;;;;;5056191;28;20581;-73
2021/01/02 00:14:01;;;;;;;34.03;20.07;;;;;;;;;;5050609;28;20458;-73
2021/01/02 00:16:46;;;;;;;36.83;21.03;;;;;;;;;;5057348;28;20457;-73
2021/01/02 00:19:20;;;;;;;40.23;22.03;;;;;;;;;;5057140;28;20523;-73
2021/01/02 00:21:53;;;;;;;38.43;20.70;;;;;;;;;;5056125;28;20737;-73
2021/01/02 00:24:39;;;;;;;35.53;19.80;;;;;;;;;;5056103;28;20449;-73
2021/01/02 00:27:08;;;;;;;35.17;21.77;;;;;;;;;;5056570;28;20842;-74
2021/01/02 00:29:45;;;;;;;31.60;19.43;;;;;;;;;;5057287;28;20919;-73
2021/01/02 00:32:18;;;;;;;33.30;20.50;;;;;;;;;;5056469;28;20458;-73
2021/01/02 00:35:05;;;;;;;36.33;20.37;;;;;;;;;;5056128;28;20779;-73
2021/01/02 00:37:47;;;;;;;47.80;22.00;;;;;;;;;;5056790;28;20468;-73
2021/01/02 00:40:17;;;;;;;35.40;21.30;;;;;;;;;;5052890;28;20453;-73
2021/01/02 00:42:46;;;;;;;39.40;20.50;;;;;;;;;;5055674;28;20462;-73
2021/01/02 00:45:14;;;;;;;41.93;19.57;;;;;;;;;;5068123;28;20451;-73
2021/01/02 00:47:45;;;;;;;33.13;21.80;;;;;;;;;;5053643;28;20468;-73
2021/01/02 00:50:18;;;;;;;40.10;21.47;;;;;;;;;;5054129;28;20482;-72
2021/01/02 00:53:04;;;;;;;36.57;20.57;;;;;;;;;;5056188;28;20500;-73
2021/01/02 00:55:50;;;;;;;35.27;19.17;;;;;;;;;;5054160;28;20888;-71
2021/01/02 00:58:29;;;;;;;41.90;23.13;;;;;;;;;;5054977;28;20465;-71
2021/01/02 01:01:02;;;;;;;45.13;22.90;;;;;;;;;;5054741;28;20449;-73
2021/01/02 01:03:42;;;;;;;36.87;22.30;;;;;;;;;;5057052;28;20501;-73
2021/01/02 01:06:12;;;;;;;41.30;22.87;;;;;;;;;;5056508;28;20882;-73
2021/01/02 01:08:43;;;;;;;34.43;21.93;;;;;;;;;;5056986;28;20453;-73
2021/01/02 01:11:17;;;;;;;32.30;19.33;;;;;;;;;;5056641;28;20485;-74
2021/01/02 01:13:45;;;;;;;40.53;21.50;;;;;;;;;;5053693;28;20951;-73
2021/01/02 01:16:12;;;;;;;34.90;20.10;;;;;;;;;;5055782;28;20442;-73
2021/01/02 01:18:47;;;;;;;39.77;22.23;;;;;;;;;;5055566;28;20515;-71
2021/01/02 01:21:18;;;;;;;34.97;20.97;;;;;;;;;;5052650;28;20466;-72
2021/01/02 01:23:49;;;;;;;34.00;22.13;;;;;;;;;;5059733;28;20519;-73
2021/01/02 01:26:43;;;;;;;39.80;22.73;;;;;;;;;;5060201;28;20456;-72
2021/01/02 01:29:18;;;;;;;33.90;19.90;;;;;;;;;;5014736;28;20781;-72
2021/01/02 01:31:46;;;;;;;37.30;22.30;;;;;;;;;;5051244;28;20587;-72
2021/01/02 01:34:22;;;;;;;36.03;17.73;;;;;;;;;;5060339;28;20461;-72
2021/01/02 01:36:50;;;;;;;38.83;21.87;;;;;;;;;;5059903;28;20468;-73
2021/01/02 01:39:20;;;;;;;34.90;19.97;;;;;;;;;;5060240;28;20527;-72
2021/01/02 01:41:53;;;;;;;32.00;20.20;;;;;;;;;;5060046;28;20469;-72
2021/01/02 01:44:53;;;;;;;29.97;19.50;;;;;;;;;;5059393;28;20862;-72
2021/01/02 01:47:23;;;;;;;35.07;20.40;;;;;;;;;;5058432;28;20736;-72
2021/01/02 01:50:21;;;;;;;39.23;22.07;;;;;;;;;;5057890;28;20478;-72
2021/01/02 01:53:21;;;;;;;34.60;19.90;;;;;;;;;;5052996;28;20489;-73
2021/01/02 01:55:59;;;;;;;42.17;22.33;;;;;;;;;;4974961;28;20490;-73
2021/01/02 01:58:39;;;;;;;38.97;22.20;;;;;;;;;;4997901;28;21092;-73
2021/01/02 02:01:06;;;;;;;43.63;23.37;;;;;;;;;;5036429;28;20458;-73
2021/01/02 02:03:48;;;;;;;37.50;20.93;;;;;;;;;;5058325;28;20446;-73
2021/01/02 02:06:25;;;;;;;37.67;21.83;;;;;;;;;;5043837;28;20461;-73
2021/01/02 02:08:58;;;;;;;38.40;20.40;;;;;;;;;;5059418;28;20473;-73
2021/01/02 02:11:42;;;;;;;41.50;23.80;;;;;;;;;;5059196;28;20486;-73
2021/01/02 02:14:12;;;;;;;35.20;20.50;;;;;;;;;;5050806;28;20937;-73
2021/01/02 02:16:43;;;;;;;44.07;22.33;;;;;;;;;;5051091;28;20469;-73
2021/01/02 02:19:23;;;;;;;29.97;19.20;;;;;;;;;;5059907;28;20461;-73
2021/01/02 02:21:57;;;;;;;32.63;20.70;;;;;;;;;;5044032;28;21016;-72
2021/01/02 02:24:27;;;;;;;36.57;23.60;;;;;;;;;;5039495;28;20459;-72
2021/01/02 02:26:56;;;;;;;37.33;23.03;;;;;;;;;;5039294;28;20450;-73
2021/01/02 02:29:25;;;;;;;35.63;20.77;;;;;;;;;;5040195;28;20450;-72
2021/01/02 02:31:58;;;;;;;34.40;20.27;;;;;;;;;;5039567;28;20494;-73
2021/01/02 02:34:26;;;;;;;34.73;21.60;;;;;;;;;;5047925;28;20545;-72
2021/01/02 02:36:53;;;;;;;32.20;20.30;;;;;;;;;;5041434;28;20463;-72
2021/01/02 02:39:21;;;;;;;36.03;21.00;;;;;;;;;;5039861;28;20473;-72
2021/01/02 02:41:49;;;;;;;35.97;20.80;;;;;;;;;;5038530;28;20469;-73
2021/01/02 02:44:17;;;;;;;33.53;19.37;;;;;;;;;;5039457;28;20528;-72
2021/01/02 02:46:45;;;;;;;47.40;23.00;;;;;;;;;;5039920;28;20479;-73
2021/01/02 02:49:13;;;;;;;38.50;22.13;;;;;;;;;;5039502;28;20517;-72
2021/01/02 02:51:43;;;;;;;33.77;21.87;;;;;;;;;;5056528;28;20936;-73
2021/01/02 02:54:11;;;;;;;36.93;21.90;;;;;;;;;;5060869;28;20887;-73
2021/01/02 02:56:38;;;;;;;38.53;20.37;;;;;;;;;;5079677;28;20461;-73
2021/01/02 02:59:11;;;;;;;43.57;22.33;;;;;;;;;;5050468;28;20463;-73
2021/01/02 03:01:38;;;;;;;36.93;20.90;;;;;;;;;;5078896;28;20477;-73
2021/01/02 03:04:06;;;;;;;37.07;22.90;;;;;;;;;;5069971;28;20900;-73
2021/01/02 03:06:33;;;;;;;37.33;20.93;;;;;;;;;;5058704;28;20467;-73
2021/01/02 03:09:01;;;;;;;31.50;19.13;;;;;;;;;;5058732;28;20466;-73
2021/01/02 03:11:30;;;;;;;31.60;20.37;;;;;;;;;;5058579;28;20494;-73
2021/01/02 03:13:57;;;;;;;34.53;20.40;;;;;;;;;;5058641;28;20540;-73
2021/01/02 03:16:24;;;;;;;34.67;20.53;;;;;;;;;;5069847;28;20453;-73
2021/01/02 03:18:52;;;;;;;37.90;21.83;;;;;;;;;;5078584;28;20448;-73
2021/01/02 03:21:19;;;;;;;37.47;20.30;;;;;;;;;;5078142;28;20453;-73
2021/01/02 03:23:51;;;;;;;37.90;22.70;;;;;;;;;;5067823;28;20450;-73
2021/01/02 03:26:19;;;;;;;36.70;21.43;;;;;;;;;;5057852;28;20469;-73
2021/01/02 03:28:50;;;;;;;34.83;20.83;;;;;;;;;;5059155;28;20453;-73
2021/01/02 03:31:18;;;;;;;41.23;22.80;;;;;;;;;;5056335;28;20829;-73
2021/01/02 03:33:45;;;;;;;31.77;19.77;;;;;;;;;;5058181;28;20465;-73
2021/01/02 03:36:13;;;;;;;35.23;21.47;;;;;;;;;;5057933;28;20560;-73
2021/01/02 03:38:41;;;;;;;30.67;19.67;;;;;;;;;;5058261;28;20724;-73
2021/01/02 03:41:09;;;;;;;37.90;21.10;;;;;;;;;;5057825;28;20873;-72
2021/01/02 03:43:37;;;;;;;37.40;21.77;;;;;;;;;;5057255;28;20459;-73
2021/01/02 03:46:05;;;;;;;33.03;20.13;;;;;;;;;;5058234;28;20458;-73
2021/01/02 03:48:32;;;;;;;36.27;22.10;;;;;;;;;;5049065;28;20463;-73
2021/01/02 03:50:59;;;;;;;29.17;18.80;;;;;;;;;;5057118;28;20543;-73
2021/01/02 03:53:27;;;;;;;35.10;19.67;;;;;;;;;;5057878;28;20478;-73
2021/01/02 03:55:56;;;;;;;34.87;20.20;;;;;;;;;;5057865;28;20461;-73
2021/01/02 03:58:24;;;;;;;31.67;20.20;;;;;;;;;;5057451;28;20481;-73
2021/01/02 04:00:52;;;;;;;34.30;19.00;;;;;;;;;;5057944;28;20457;-73
2021/01/02 04:03:19;;;;;;;29.17;20.03;;;;;;;;;;5056005;28;20477;-73
2021/01/02 04:05:47;;;;;;;31.37;18.77;;;;;;;;;;5037494;28;20467;-73
2021/01/02 04:08:14;;;;;;;35.17;20.47;;;;;;;;;;5037627;28;20466;-73
2021/01/02 04:10:42;;;;;;;31.60;19.70;;;;;;;;;;5037737;28;20494;-72
2021/01/02 04:13:09;;;;;;;29.83;18.00;;;;;;;;;;5037935;28;20463;-73
2021/01/02 04:15:36;;;;;;;31.53;20.23;;;;;;;;;;5037404;28;21075;-73
2021/01/02 04:18:06;;;;;;;30.50;18.67;;;;;;;;;;5037700;28;20536;-73
2021/01/02 04:20:34;;;;;;;32.67;17.47;;;;;;;;;;5028963;28;20533;-74
2021/01/02 04:23:01;;;;;;;36.33;20.47;;;;;;;;;;5038010;28;20455;-73
2021/01/02 04:25:28;;;;;;;49.43;19.07;;;;;;;;;;5037257;28;20462;-73
2021/01/02 04:27:56;;;;;;;34.27;20.20;;;;;;;;;;5037484;28;20781;-73
2021/01/02 04:30:23;;;;;;;35.37;19.73;;;;;;;;;;5037197;28;20459;-73
2021/01/02 04:32:51;;;;;;;28.37;17.90;;;;;;;;;;5036959;28;20467;-73
2021/01/02 04:35:19;;;;;;;33.77;18.37;;;;;;;;;;5037344;28;20477;-73
2021/01/02 04:37:46;;;;;;;30.13;16.30;;;;;;;;;;5037096;28;20533;-73
2021/01/02 04:40:14;;;;;;;26.87;18.10;;;;;;;;;;5037405;28;20493;-73
2021/01/02 04:42:42;;;;;;;29.30;16.97;;;;;;;;;;5036791;28;20577;-73
2021/01/02 04:45:10;;;;;;;32.50;17.20;;;;;;;;;;5037344;28;20489;-73
2021/01/02 04:47:38;;;;;;;28.83;18.20;;;;;;;;;;5034696;28;20458;-72
2021/01/02 04:50:07;;;;;;;29.40;16.90;;;;;;;;;;5036710;28;20457;-73
2021/01/02 04:52:36;;;;;;;28.63;17.20;;;;;;;;;;5037097;28;20505;-73
2021/01/02 04:55:04;;;;;;;30.10;17.97;;;;;;;;;;5037006;28;20459;-73
2021/01/02 04:57:35;;;;;;;28.03;17.90;;;;;;;;;;5033193;28;20462;-73
2021/01/02 05:00:02;;;;;;;34.40;20.00;;;;;;;;;;5041141;28;20896;-73
2021/01/02 05:02:30;;;;;;;30.43;18.17;;;;;;;;;;5041137;28;20474;-73
2021/01/02 05:04:58;;;;;;;28.37;18.80;;;;;;;;;;5040771;28;20466;-72
2021/01/02 05:07:26;;;;;;;27.83;17.10;;;;;;;;;;5040785;28;20887;-73
2021/01/02 05:09:54;;;;;;;30.10;18.40;;;;;;;;;;5040477;28;20520;-73
2021/01/02 05:12:25;;;;;;;29.17;19.53;;;;;;;;;;5041429;28;20490;-73
2021/01/02 05:15:08;;;;;;;26.33;16.17;;;;;;;;;;5040894;28;20465;-73
2021/01/02 05:17:36;;;;;;;27.93;17.30;;;;;;;;;;5039256;28;20471;-73
2021/01/02 05:20:10;;;;;;;29.17;18.07;;;;;;;;;;5040808;28;20457;-73
2021/01/02 05:22:37;;;;;;;33.87;19.60;;;;;;;;;;5033393;28;20490;-73
2021/01/02 05:25:07;;;;;;;33.23;19.33;;;;;;;;;;5040724;28;20447;-73
2021/01/02 05:27:34;;;;;;;30.27;19.90;;;;;;;;;;5040688;28;20724;-73
2021/01/02 05:30:20;;;;;;;30.03;19.33;;;;;;;;;;5040379;28;20477;-73
2021/01/02 05:32:57;;;;;;;37.50;20.63;;;;;;;;;;5037649;28;20457;-73
2021/01/02 05:35:25;;;;;;;27.07;17.77;;;;;;;;;;5060475;28;20453;-73
2021/01/02 05:37:52;;;;;;;35.03;19.77;;;;;;;;;;5060539;28;20468;-73
2021/01/02 05:40:37;;;;;;;32.60;17.57;;;;;;;;;;5060138;28;20758;-73
2021/01/02 05:43:04;;;;;;;27.60;18.57;;;;;;;;;;5060352;28;20453;-73
2021/01/02 05:45:32;;;;;;;33.07;18.73;;;;;;;;;;5051055;28;20764;-73
2021/01/02 05:48:11;;;;;;;33.03;19.63;;;;;;;;;;5060335;28;20531;-72
2021/01/02 05:50:42;;;;;;;30.47;19.30;;;;;;;;;;5060774;28;20456;-73
2021/01/02 05:53:18;;;;;;;36.53;21.20;;;;;;;;;;5044404;28;20494;-73
2021/01/02 05:55:46;;;;;;;32.87;18.37;;;;;;;;;;5060971;28;20453;-73
2021/01/02 05:58:17;;;;;;;35.97;19.27;;;;;;;;;;5060184;28;20461;-73
2021/01/02 06:00:45;;;;;;;33.30;18.40;;;;;;;;;;5059851;28;20936;-73
2021/01/02 06:03:25;;;;;;;30.57;18.70;;;;;;;;;;5061022;28;20720;-73
2021/01/02 06:05:59;;;;;;;29.70;17.80;;;;;;;;;;5060117;28;20515;-73
2021/01/02 06:08:34;;;;;;;33.60;19.07;;;;;;;;;;5060268;28;20465;-73
2021/01/02 06:11:03;;;;;;;28.63;18.17;;;;;;;;;;5059620;28;20920;-74
2021/01/02 06:13:31;;;;;;;35.47;17.67;;;;;;;;;;5059639;28;20518;-72
2021/01/02 06:16:00;;;;;;;28.60;17.77;;;;;;;;;;5039828;28;20459;-73
2021/01/02 06:18:28;;;;;;;29.70;18.27;;;;;;;;;;5039917;28;20477;-73
2021/01/02 06:20:57;;;;;;;33.07;20.90;;;;;;;;;;5039529;28;20908;-73
2021/01/02 06:23:27;;;;;;;29.60;17.43;;;;;;;;;;5039546;28;20463;-73
2021/01/02 06:25:55;;;;;;;33.00;20.00;;;;;;;;;;5039240;28;20462;-72
2021/01/02 06:28:26;;;;;;;37.33;19.87;;;;;;;;;;5039692;28;20488;-73
2021/01/02 06:31:00;;;;;;;32.87;19.43;;;;;;;;;;5039348;28;20500;-73
2021/01/02 06:33:28;;;;;;;26.17;18.10;;;;;;;;;;5037841;28;20454;-73
2021/01/02 06:35:55;;;;;;;29.53;19.37;;;;;;;;;;5039205;28;20498;-73
2021/01/02 06:38:23;;;;;;;31.73;20.43;;;;;;;;;;5039548;28;20558;-73
2021/01/02 06:40:51;;;;;;;31.83;19.40;;;;;;;;;;5039983;28;20459;-73
2021/01/02 06:43:19;;;;;;;35.87;18.87;;;;;;;;;;5054513;28;20461;-73
2021/01/02 06:45:51;;;;;;;33.90;20.07;;;;;;;;;;5059191;28;20469;-73
2021/01/02 06:48:34;;;;;;;27.37;18.30;;;;;;;;;;5059370;28;20461;-73
2021/01/02 06:51:03;;;;;;;38.83;20.93;;;;;;;;;;5059164;28;20497;-73
2021/01/02 06:53:31;;;;;;;31.43;19.13;;;;;;;;;;5059190;28;20461;-73
2021/01/02 06:55:59;;;;;;;32.17;19.63;;;;;;;;;;5057062;28;20482;-73
2021/01/02 06:58:26;;;;;;;28.77;17.70;;;;;;;;;;5022622;28;20481;-73
2021/01/02 07:00:55;;;;;;;34.73;20.10;;;;;;;;;;5037687;28;20462;-72
2021/01/02 07:03:52;;;;;;;32.90;20.00;;;;;;;;;;5038193;28;20463;-73
2021/01/02 07:06:26;;;;;;;33.97;18.90;;;;;;;;;;4977651;28;20468;-72
2021/01/02 07:08:53;;;;;;;32.10;19.60;;;;;;;;;;5026319;28;20451;-73
2021/01/02 07:11:22;;;;;;;31.53;19.43;;;;;;;;;;5036379;28;20934;-73
2021/01/02 07:13:49;;;;;;;31.00;17.97;;;;;;;;;;5036885;28;20458;-72
2021/01/02 07:16:33;;;;;;;34.57;18.93;;;;;;;;;;5037386;28;20513;-73
2021/01/02 07:19:01;;;;;;;34.87;19.37;;;;;;;;;;5036455;28;20459;-73
2021/01/02 07:21:35;;;;;;;36.50;19.30;;;;;;;;;;5037149;28;20462;-73
2021/01/02 07:24:26;;;;;;;30.27;17.97;;;;;;;;;;5053753;28;20476;-73
2021/01/02 07:26:57;;;;;;;42.37;21.93;;;;;;;;;;5058141;28;20461;-73
2021/01/02 07:29:25;;;;;;;34.30;20.13;;;;;;;;;;5058201;28;20796;-73
2021/01/02 07:31:53;;;;;;;34.43;19.97;;;;;;;;;;5058370;28;20563;-73
2021/01/02 07:34:21;;;;;;;35.47;21.47;;;;;;;;;;5057511;28;20497;-73
2021/01/02 07:36:49;;;;;;;32.93;19.60;;;;;;;;;;5058259;28;20469;-73
2021/01/02 07:39:17;;;;;;;33.57;19.73;;;;;;;;;;5053322;28;20462;-73
2021/01/02 07:41:44;;;;;;;35.13;23.20;;;;;;;;;;5037000;28;20497;-73
2021/01/02 07:44:12;;;;;;;34.93;19.90;;;;;;;;;;5036567;28;20505;-73
2021/01/02 07:46:43;;;;;;;33.27;19.27;;;;;;;;;;5044292;28;20469;-73
2021/01/02 07:49:12;;;;;;;35.07;19.33;;;;;;;;;;5057660;28;20453;-73
2021/01/02 07:51:39;;;;;;;35.63;18.30;;;;;;;;;;5038293;28;21003;-73
2021/01/02 07:54:07;;;;;;;37.10;21.87;;;;;;;;;;5042920;28;20751;-73
2021/01/02 07:56:37;;;;;;;40.10;22.20;;;;;;;;;;5059040;28;20465;-73
2021/01/02 07:59:23;;;;;;;36.80;19.07;;;;;;;;;;5058837;28;20454;-73
2021/01/02 08:01:51;;;;;;;37.97;21.20;;;;;;;;;;5053633;28;20731;-73
2021/01/02 08:04:21;;;;;;;34.40;19.20;;;;;;;;;;5045881;28;20959;-73
2021/01/02 08:06:52;;;;;;;38.33;21.57;;;;;;;;;;5058599;28;20743;-73
2021/01/02 08:09:20;;;;;;;37.67;22.20;;;;;;;;;;5058828;28;20457;-73
2021/01/02 08:11:54;;;;;;;42.93;22.03;;;;;;;;;;5057935;28;20909;-73
2021/01/02 08:14:22;;;;;;;38.50;20.30;;;;;;;;;;5058087;28;20716;-73
2021/01/02 08:17:06;;;;;;;39.47;22.77;;;;;;;;;;5057248;28;20466;-72
2021/01/02 08:19:42;;;;;;;40.73;21.60;;;;;;;;;;5053372;28;20803;-73
2021/01/02 08:22:10;;;;;;;42.30;21.20;;;;;;;;;;5057863;28;20741;-73
2021/01/02 08:24:38;;;;;;;43.93;23.17;;;;;;;;;;5056946;28;20458;-72
2021/01/02 08:27:24;;;;;;;42.80;23.37;;;;;;;;;;5058266;28;20600;-73
2021/01/02 08:29:55;;;;;;;38.10;21.43;;;;;;;;;;5054999;28;20523;-73
2021/01/02 08:32:27;;;;;;;44.40;24.37;;;;;;;;;;5056730;28;20505;-73
2021/01/02 08:34:55;;;;;;;44.63;24.67;;;;;;;;;;5057126;28;20789;-73
2021/01/02 08:37:23;;;;;;;45.93;24.87;;;;;;;;;;5054050;28;20487;-73
2021/01/02 08:40:09;;;;;;;44.73;22.13;;;;;;;;;;5057045;28;20531;-73
2021/01/02 08:42:37;;;;;;;46.10;22.70;;;;;;;;;;5055327;28;20496;-73
2021/01/02 08:45:06;;;;;;;44.60;23.43;;;;;;;;;;5055397;28;20454;-74
2021/01/02 08:47:33;;;;;;;45.23;24.80;;;;;;;;;;5053325;28;20458;-72
2021/01/02 08:50:09;;;;;;;44.03;23.57;;;;;;;;;;5040782;28;20528;-73
2021/01/02 08:52:43;;;;;;;49.23;23.47;;;;;;;;;;5053374;28;20489;-73
2021/01/02 08:55:17;;;;;;;49.60;26.90;;;;;;;;;;5052678;28;20457;-73
2021/01/02 08:57:48;;;;;;;45.73;25.57;;;;;;;;;;5053484;28;20461;-73
2021/01/02 09:00:28;;;;;;;47.43;26.00;;;;;;;;;;5054932;28;20468;-73
2021/01/02 09:03:11;;;;;;;48.23;27.50;;;;;;;;;;5053400;28;20729;-73
2021/01/02 09:05:43;;;;;;;45.97;23.87;;;;;;;;;;5051363;28;20500;-73
2021/01/02 09:08:11;;;;;;;42.63;23.53;;;;;;;;;;5041013;28;20446;-73
2021/01/02 09:10:40;;;;;;;42.77;22.50;;;;;;;;;;5053399;28;20743;-73
2021/01/02 09:13:22;;;;;;;46.17;25.50;;;;;;;;;;5036886;28;20464;-73
2021/01/02 09:15:51;;;;;;;45.70;23.90;;;;;;;;;;5056608;28;20453;-73
2021/01/02 09:18:19;;;;;;;42.83;22.80;;;;;;;;;;5055863;28;20453;-73
2021/01/02 09:20:50;;;;;;;43.73;24.83;;;;;;;;;;5056923;28;20873;-73
2021/01/02 09:23:29;;;;;;;45.13;23.33;;;;;;;;;;5057007;28;20609;-74
2021/01/02 09:25:57;;;;;;;45.27;21.30;;;;;;;;;;5056553;28;20488;-74
2021/01/02 09:28:25;;;;;;;38.90;23.10;;;;;;;;;;5057429;28;20792;-73
2021/01/02 09:30:55;;;;;;;41.17;22.83;;;;;;;;;;5056998;28;20540;-74
2021/01/02 09:33:23;;;;;;;43.87;23.03;;;;;;;;;;5056374;28;20450;-73
2021/01/02 09:35:52;;;;;;;43.50;24.53;;;;;;;;;;5054088;28;20921;-74
2021/01/02 09:38:19;;;;;;;47.30;24.83;;;;;;;;;;5053013;28;20466;-74
2021/01/02 09:40:47;;;;;;;47.37;24.77;;;;;;;;;;5055982;28;20458;-73
2021/01/02 09:43:18;;;;;;;42.00;24.20;;;;;;;;;;5050509;28;20855;-74
2021/01/02 09:45:45;;;;;;;47.97;25.83;;;;;;;;;;5046826;28;20524;-73
2021/01/02 09:48:14;;;;;;;42.80;23.20;;;;;;;;;;5042874;28;20489;-73
2021/01/02 09:50:41;;;;;;;39.70;22.30;;;;;;;;;;5047582;28;20472;-73
2021/01/02 09:53:10;;;;;;;35.77;18.80;;;;;;;;;;5048323;28;20944;-73
2021/01/02 09:55:37;;;;;;;40.50;23.57;;;;;;;;;;5057116;28;20469;-72
2021/01/02 09:58:12;;;;;;;40.83;22.77;;;;;;;;;;5060196;28;20492;-72
2021/01/02 10:00:49;;;;;;;45.20;23.63;;;;;;;;;;5053305;28;20813;-73
2021/01/02 10:03:19;;;;;;;39.13;21.30;;;;;;;;;;5048846;28;20492;-73
2021/01/02 10:05:46;;;;;;;40.40;24.37;;;;;;;;;;5060343;28;20457;-72
2021/01/02 10:08:20;;;;;;;50.67;26.70;;;;;;;;;;5056906;28;20749;-73
2021/01/02 10:11:00;;;;;;;50.00;27.00;;;;;;;;;;5044665;28;20553;-74
2021/01/02 10:13:32;;;;;;;39.73;23.00;;;;;;;;;;5055285;28;20466;-73
2021/01/02 10:16:00;;;;;;;46.90;23.53;;;;;;;;;;5056787;28;20486;-73
2021/01/02 10:18:28;;;;;;;38.10;22.70;;;;;;;;;;5049798;28;20817;-73
2021/01/02 10:20:55;;;;;;;41.43;24.07;;;;;;;;;;5058888;28;20449;-73
2021/01/02 10:23:23;;;;;;;47.37;24.00;;;;;;;;;;5059035;28;20894;-73
2021/01/02 10:25:51;;;;;;;38.93;22.10;;;;;;;;;;5056046;28;20463;-73
2021/01/02 10:28:18;;;;;;;37.97;22.83;;;;;;;;;;5038593;28;20804;-73
2021/01/02 10:30:47;;;;;;;44.37;23.67;;;;;;;;;;5040925;28;20466;-73
2021/01/02 10:33:15;;;;;;;36.27;22.97;;;;;;;;;;5050697;28;20467;-73
2021/01/02 10:35:42;;;;;;;40.57;23.87;;;;;;;;;;5053087;28;20462;-73
2021/01/02 10:38:10;;;;;;;44.40;24.77;;;;;;;;;;5058071;28;20461;-73
2021/01/02 10:40:39;;;;;;;45.87;24.30;;;;;;;;;;5053796;28;20776;-73
2021/01/02 10:43:09;;;;;;;39.13;21.90;;;;;;;;;;5059238;28;20559;-74
2021/01/02 10:45:38;;;;;;;41.00;22.60;;;;;;;;;;5045769;28;20465;-73
2021/01/02 10:48:08;;;;;;;33.23;19.53;;;;;;;;;;5058527;28;20524;-73
2021/01/02 10:50:35;;;;;;;38.27;21.40;;;;;;;;;;5058068;28;20776;-74
2021/01/02 10:53:03;;;;;;;40.30;22.90;;;;;;;;;;5055198;28;20500;-73
2021/01/02 10:55:30;;;;;;;41.60;23.07;;;;;;;;;;5046391;28;20544;-73
2021/01/02 10:57:58;;;;;;;38.43;22.33;;;;;;;;;;5058285;28;20462;-73
2021/01/02 11:00:25;;;;;;;39.27;21.33;;;;;;;;;;5048327;28;20462;-73
2021/01/02 11:02:54;;;;;;;36.10;20.67;;;;;;;;;;5040663;28;20470;-73
2021/01/02 11:05:25;;;;;;;42.87;24.40;;;;;;;;;;5057069;28;20450;-73
2021/01/02 11:07:53;;;;;;;39.30;24.03;;;;;;;;;;5054613;28;20501;-72
2021/01/02 11:10:20;;;;;;;43.13;21.90;;;;;;;;;;5051475;28;20443;-72
2021/01/02 11:12:48;;;;;;;40.87;22.57;;;;;;;;;;5054468;28;20482;-72
2021/01/02 11:15:16;;;;;;;43.10;23.40;;;;;;;;;;5037872;28;20447;-72
2021/01/02 11:17:43;;;;;;;41.80;23.97;;;;;;;;;;5037500;28;20467;-72
2021/01/02 11:20:11;;;;;;;36.50;22.97;;;;;;;;;;5042922;28;20916;-73
2021/01/02 11:22:41;;;;;;;38.83;23.83;;;;;;;;;;5057550;28;20481;-72
2021/01/02 11:25:09;;;;;;;40.30;24.70;;;;;;;;;;5056792;28;20497;-73
2021/01/02 11:27:37;;;;;;;40.00;22.30;;;;;;;;;;5056919;28;20473;-73
2021/01/02 11:30:04;;;;;;;44.10;23.93;;;;;;;;;;5049082;28;20516;-73
2021/01/02 11:32:32;;;;;;;43.73;26.27;;;;;;;;;;5041896;28;20516;-73
2021/01/02 11:35:00;;;;;;;40.27;22.77;;;;;;;;;;5056179;28;20451;-72
2021/01/02 11:37:32;;;;;;;41.83;23.60;;;;;;;;;;5050089;28;20494;-73
2021/01/02 11:40:01;;;;;;;45.30;25.40;;;;;;;;;;5037650;28;20918;-73
2021/01/02 11:42:28;;;;;;;39.90;23.37;;;;;;;;;;5039955;28;20589;-73
2021/01/02 11:44:58;;;;;;;41.00;23.30;;;;;;;;;;5052646;28;20446;-72
2021/01/02 11:47:26;;;;;;;40.30;22.47;;;;;;;;;;5041356;28;20467;-73
2021/01/02 11:49:56;;;;;;;40.10;22.00;;;;;;;;;;5057127;28;20462;-73
2021/01/02 11:52:24;;;;;;;56.43;25.97;;;;;;;;;;5057586;28;20547;-73
2021/01/02 11:54:53;;;;;;;44.97;26.13;;;;;;;;;;5057325;28;20468;-73
2021/01/02 11:57:22;;;;;;;41.40;22.73;;;;;;;;;;5054746;28;20454;-73
2021/01/02 11:59:54;;;;;;;45.70;21.90;;;;;;;;;;5059561;28;20450;-72
2021/01/02 12:02:21;;;;;;;46.17;23.90;;;;;;;;;;5056341;28;20458;-73
2021/01/02 12:05:06;;;;;;;48.27;24.60;;;;;;;;;;5057547;28;20508;-73
2021/01/02 12:07:43;;;;;;;38.10;20.37;;;;;;;;;;5050609;28;20462;-73
2021/01/02 12:10:15;;;;;;;39.67;22.13;;;;;;;;;;5056896;28;20465;-73
2021/01/02 12:12:44;;;;;;;40.23;22.50;;;;;;;;;;5056617;28;20486;-73
2021/01/02 12:15:18;;;;;;;37.67;21.10;;;;;;;;;;5057209;28;20449;-73
2021/01/02 12:17:46;;;;;;;32.43;19.90;;;;;;;;;;5055047;28;20847;-73
2021/01/02 12:20:13;;;;;;;38.27;20.43;;;;;;;;;;5055971;28;20716;-73
2021/01/02 12:22:42;;;;;;;35.27;19.87;;;;;;;;;;5056163;28;20476;-73
2021/01/02 12:25:10;;;;;;;31.67;19.00;;;;;;;;;;5056080;28;20454;-73
2021/01/02 12:27:38;;;;;;;37.37;21.23;;;;;;;;;;5055981;28;20539;-73
2021/01/02 12:30:07;;;;;;;29.93;18.80;;;;;;;;;;5056095;28;20458;-73
2021/01/02 12:32:36;;;;;;;38.80;19.60;;;;;;;;;;5055647;28;20493;-73
2021/01/02 12:35:04;;;;;;;32.30;16.93;;;;;;;;;;5056681;28;20465;-73
2021/01/02 12:37:38;;;;;;;33.63;18.67;;;;;;;;;;5055279;28;20465;-72
2021/01/02 12:40:17;;;;;;;28.87;19.13;;;;;;;;;;5055675;28;20468;-73
2021/01/02 12:42:52;;;;;;;37.70;20.10;;;;;;;;;;5054998;28;20850;-73
2021/01/02 12:45:24;;;;;;;38.00;20.47;;;;;;;;;;5048511;28;20455;-73
2021/01/02 12:47:54;;;;;;;34.20;18.90;;;;;;;;;;5037867;28;20584;-73
2021/01/02 12:50:33;;;;;;;38.73;19.30;;;;;;;;;;5048718;28;20454;-73
2021/01/02 12:53:09;;;;;;;32.70;18.23;;;;;;;;;;5056813;28;20521;-73
2021/01/02 12:55:40;;;;;;;42.13;21.07;;;;;;;;;;5054489;28;20514;-73
2021/01/02 12:58:08;;;;;;;35.47;19.60;;;;;;;;;;5054817;28;20462;-74
2021/01/02 13:00:37;;;;;;;38.33;20.77;;;;;;;;;;5049092;28;20513;-73
2021/01/02 13:03:05;;;;;;;36.60;24.70;;;;;;;;;;5053590;28;20457;-73
2021/01/02 13:05:35;;;;;;;36.00;20.27;;;;;;;;;;5054907;28;20461;-73
2021/01/02 13:08:02;;;;;;;34.43;20.43;;;;;;;;;;5055176;28;20806;-73
2021/01/02 13:10:32;;;;;;;38.97;22.07;;;;;;;;;;5055463;28;20478;-72
2021/01/02 13:13:00;;;;;;;30.07;15.43;;;;;;;;;;5036971;28;20490;-73
2021/01/02 13:15:27;;;;;;;35.40;18.80;;;;;;;;;;5035471;28;21047;-73
2021/01/02 13:17:56;;;;;;;37.40;20.47;;;;;;;;;;5038838;28;20467;-73
2021/01/02 13:20:23;;;;;;;37.40;20.13;;;;;;;;;;5038938;28;20443;-73
2021/01/02 13:22:51;;;;;;;36.50;18.40;;;;;;;;;;5055411;28;20481;-73
2021/01/02 13:25:19;;;;;;;35.40;19.70;;;;;;;;;;5050999;28;20451;-73
2021/01/02 13:27:49;;;;;;;28.37;18.00;;;;;;;;;;5057102;28;20556;-73
2021/01/02 13:30:23;;;;;;;29.63;17.70;;;;;;;;;;5053394;28;20719;-73
2021/01/02 13:32:51;;;;;;;35.90;16.17;;;;;;;;;;5053198;28;20597;-73
2021/01/02 13:35:20;;;;;;;29.67;16.10;;;;;;;;;;5054140;28;20476;-73
2021/01/02 13:37:47;;;;;;;28.53;15.37;;;;;;;;;;5058348;28;20465;-73
2021/01/02 13:40:15;;;;;;;29.43;16.00;;;;;;;;;;5056851;28;20469;-73
2021/01/02 13:42:43;;;;;;;27.90;16.40;;;;;;;;;;5059485;28;20763;-73
2021/01/02 13:45:15;;;;;;;28.50;16.93;;;;;;;;;;5058996;28;20546;-73
2021/01/02 13:47:43;;;;;;;29.43;13.83;;;;;;;;;;5053185;28;20519;-73
2021/01/02 13:50:10;;;;;;;24.50;15.03;;;;;;;;;;5043364;28;20465;-73
2021/01/02 13:52:39;;;;;;;28.47;16.57;;;;;;;;;;5057951;28;20486;-73
2021/01/02 13:55:07;;;;;;;24.20;15.03;;;;;;;;;;5058602;28;21079;-73
2021/01/02 13:57:40;;;;;;;30.67;16.03;;;;;;;;;;5053601;28;20454;-73
2021/01/02 14:00:11;;;;;;;24.90;15.40;;;;;;;;;;5058056;28;20462;-73
2021/01/02 14:02:38;;;;;;;26.97;14.67;;;;;;;;;;5050458;28;20741;-74
2021/01/02 14:05:06;;;;;;;21.03;12.80;;;;;;;;;;5058297;28;20462;-73
2021/01/02 14:07:33;;;;;;;26.97;15.20;;;;;;;;;;5051891;28;20450;-73
2021/01/02 14:10:02;;;;;;;27.43;15.80;;;;;;;;;;5038487;28;20537;-73
2021/01/02 14:12:29;;;;;;;22.57;14.30;;;;;;;;;;5045150;28;20761;-73
2021/01/02 14:14:57;;;;;;;25.83;14.37;;;;;;;;;;5047092;28;20470;-73
2021/01/02 14:17:28;;;;;;;27.90;15.30;;;;;;;;;;5038251;28;20466;-73
2021/01/02 14:19:58;;;;;;;30.83;16.47;;;;;;;;;;5041354;28;20551;-73
2021/01/02 14:22:27;;;;;;;28.30;16.03;;;;;;;;;;5047680;28;20562;-74
2021/01/02 14:24:56;;;;;;;29.50;16.30;;;;;;;;;;5042169;28;20462;-72
2021/01/02 14:27:24;;;;;;;27.27;15.57;;;;;;;;;;5040371;28;20805;-73
2021/01/02 14:29:52;;;;;;;29.40;15.47;;;;;;;;;;5037533;28;20760;-73
2021/01/02 14:32:19;;;;;;;29.57;17.70;;;;;;;;;;5038316;28;20543;-73
2021/01/02 14:34:49;;;;;;;24.70;15.67;;;;;;;;;;5037532;28;20867;-74
2021/01/02 14:37:19;;;;;;;31.17;16.83;;;;;;;;;;5049567;28;20454;-74